Time;durP1;ratioP1;P1;durP2;ratioP2;P2;SDS_P1;SDS_P2;PMS_P1;PMS_P2;Temp;Humidity;BMP_temperature;BMP_pressure;BME280_temperature;BME280_humidity;BME280_pressure;Samples;Min_cycle;Max_cycle;Signal;HPM_P1;HPM_P2
2021/03/16 00:04:24;;;;;;;0.03;0.03;;;9.00;67.80;;;;;;20801944;28;20046;-74
2021/03/16 00:14:52;;;;;;;0.47;0.20;;;8.90;67.70;;;;;;20828041;28;20045;-75
2021/03/16 00:24:52;;;;;;;0.20;0.10;;;8.90;67.70;;;;;;20795883;28;20306;-74
2021/03/16 00:34:53;;;;;;;0.10;0.10;;;8.90;67.70;;;;;;20810060;28;20041;-75
2021/03/16 00:44:53;;;;;;;0.90;0.40;;;8.90;67.70;;;;;;20793038;28;20083;-75
2021/03/16 00:54:54;;;;;;;0.30;0.28;;;8.90;67.70;;;;;;20792592;28;20482;-74
2021/03/16 01:04:55;;;;;;;0.20;0.20;;;8.90;67.60;;;;;;20793322;28;20042;-75
2021/03/16 01:14:55;;;;;;;0.10;0.10;;;8.90;67.60;;;;;;20808899;28;20478;-76
2021/03/16 01:24:56;;;;;;;0.60;0.17;;;8.90;67.60;;;;;;20807148;28;20392;-75
2021/03/16 01:34:56;;;;;;;0.10;0.10;;;8.90;67.60;;;;;;20824569;28;20367;-74
2021/03/16 01:44:57;;;;;;;0.10;0.10;;;8.90;67.60;;;;;;20790429;28;20489;-75
2021/03/16 01:54:58;;;;;;;0.15;0.10;;;8.90;67.60;;;;;;20822627;28;20489;-75
2021/03/16 02:04:59;;;;;;;4.03;0.47;;;8.90;67.50;;;;;;20789849;28;20493;-76
2021/03/16 02:15:22;;;;;;;0.47;0.10;;;8.90;67.50;;;;;;20809127;28;20045;-75
2021/03/16 02:26:19;;;;;;;4.78;1.02;;;8.90;67.40;;;;;;20797431;28;20529;-75
2021/03/16 02:36:38;;;;;;;0.10;0.10;;;8.90;67.40;;;;;;20837810;28;20045;-75
2021/03/16 02:46:57;;;;;;;0.55;0.55;;;8.90;67.40;;;;;;20822322;28;20052;-75
2021/03/16 02:57:17;;;;;;;0.10;0.10;;;8.90;67.30;;;;;;20807495;28;20045;-74
2021/03/16 03:07:36;;;;;;;0.43;0.28;;;8.80;67.20;;;;;;20807134;28;20428;-75
2021/03/16 03:17:55;;;;;;;0.15;0.13;;;8.90;67.10;;;;;;20819590;28;20498;-75
2021/03/16 03:28:16;;;;;;;3.28;0.57;;;8.90;67.10;;;;;;20819312;28;20037;-75
2021/03/16 03:38:36;;;;;;;0.10;0.10;;;8.90;67.00;;;;;;20803338;28;20045;-75
2021/03/16 03:48:55;;;;;;;0.30;0.10;;;8.80;66.90;;;;;;20817707;28;20037;-75
2021/03/16 03:59:14;;;;;;;0.00;0.00;;;8.80;66.80;;;;;;20802349;28;20045;-75
2021/03/16 04:09:33;;;;;;;0.32;0.20;;;8.80;66.70;;;;;;20815907;28;20037;-74
2021/03/16 04:19:54;;;;;;;4.80;1.17;;;8.80;66.60;;;;;;20800617;28;20049;-76
2021/03/16 04:30:13;;;;;;;0.00;0.00;;;8.80;66.60;;;;;;20814434;28;20489;-76
2021/03/16 04:40:33;;;;;;;1.75;0.17;;;8.80;66.50;;;;;;20799175;28;20053;-75
2021/03/16 04:50:52;;;;;;;1.42;1.05;;;8.80;66.40;;;;;;20826626;28;20041;-74
2021/03/16 05:01:11;;;;;;;1.77;0.68;;;8.80;66.40;;;;;;20825587;28;20144;-75
2021/03/16 05:11:32;;;;;;;1.33;0.40;;;8.70;66.30;;;;;;20811724;28;20053;-74
2021/03/16 05:21:52;;;;;;;2.35;0.30;;;8.80;66.30;;;;;;20796812;28;20490;-75
2021/03/16 05:32:11;;;;;;;0.30;0.30;;;8.80;66.20;;;;;;20811018;28;20041;-75
2021/03/16 05:42:30;;;;;;;0.47;0.20;;;8.70;66.20;;;;;;20795836;28;20045;-73
2021/03/16 05:52:52;;;;;;;0.40;0.38;;;8.80;66.30;;;;;;20809032;28;20068;-77
2021/03/16 06:03:11;;;;;;;0.75;0.38;;;8.70;66.20;;;;;;20767491;28;20449;-73
2021/03/16 06:13:30;;;;;;;1.85;0.45;;;8.80;66.20;;;;;;20755419;28;20406;-71
2021/03/16 06:23:54;;;;;;;4.00;0.45;;;8.70;66.10;;;;;;20813378;28;20108;-72
2021/03/16 06:34:24;;;;;;;1.33;0.60;;;8.70;66.20;;;;;;20719024;28;20050;-74
2021/03/16 06:44:44;;;;;;;4.38;0.50;;;8.70;66.10;;;;;;20750760;28;20049;-73
2021/03/16 06:55:10;;;;;;;0.15;0.13;;;8.70;66.20;;;;;;20709344;28;20037;-73
2021/03/16 07:05:30;;;;;;;1.48;0.38;;;8.70;66.20;;;;;;20737799;28;20046;-72
2021/03/16 07:15:49;;;;;;;0.35;0.20;;;8.70;66.20;;;;;;20737887;28;20038;-74
2021/03/16 07:26:08;;;;;;;2.42;0.45;;;8.70;66.30;;;;;;20762339;28;20042;-74
2021/03/16 07:36:27;;;;;;;0.20;0.20;;;8.70;66.30;;;;;;20722469;28;20498;-74
2021/03/16 07:46:56;;;;;;;1.00;0.38;;;8.70;66.30;;;;;;20746229;28;20506;-74
2021/03/16 07:57:24;;;;;;;;;;;8.70;66.40;;;;;;20712309;28;20038;-74
2021/03/16 08:07:44;;;;;;;2.00;0.40;;;8.70;66.40;;;;;;20729234;28;19913;-73
2021/03/16 08:18:03;;;;;;;0.15;0.15;;;8.70;66.50;;;;;;21212271;22;20050;-73
2021/03/16 08:28:22;;;;;;;0.22;0.22;;;8.70;66.50;;;;;;20827187;28;20038;-75
2021/03/16 08:38:43;;;;;;;7.35;1.05;;;8.70;66.60;;;;;;20812862;28;20065;-74
2021/03/16 08:49:02;;;;;;;0.85;0.25;;;8.70;66.60;;;;;;20778262;28;20041;-74
2021/03/16 08:59:21;;;;;;;1.50;0.50;;;8.70;66.60;;;;;;20819105;28;20053;-72
2021/03/16 09:09:41;;;;;;;2.53;0.65;;;8.70;66.70;;;;;;20806413;28;20128;-73
2021/03/16 09:20:20;;;;;;;0.75;0.20;;;8.70;66.70;;;;;;20844339;28;20037;-73
2021/03/16 09:30:45;;;;;;;5.38;0.57;;;8.80;66.40;;;;;;20859142;28;20036;-73
2021/03/16 09:41:09;;;;;;;0.35;0.35;;;8.90;66.50;;;;;;20856414;28;20050;-74
2021/03/16 09:51:15;;;;;;;0.57;0.37;;;9.00;66.30;;;;;;20845820;28;20381;-72
2021/03/16 10:01:20;;;;;;;2.75;0.15;;;9.10;65.90;;;;;;20837209;28;20519;-70
2021/03/16 10:11:29;;;;;;;0.60;0.43;;;9.10;65.60;;;;;;20830317;28;20029;-73
2021/03/16 10:21:32;;;;;;;0.80;0.20;;;9.00;65.20;;;;;;20802546;28;20045;-74
2021/03/16 10:31:33;;;;;;;4.45;0.50;;;8.90;65.10;;;;;;20812749;28;20033;-73
2021/03/16 10:41:33;;;;;;;0.80;0.20;;;8.90;65.00;;;;;;20804619;28;20033;-73
2021/03/16 10:51:34;;;;;;;4.75;0.52;;;8.90;65.00;;;;;;20815717;28;20040;-76
2021/03/16 11:01:35;;;;;;;0.38;0.20;;;8.90;65.00;;;;;;20813992;28;20176;-72
2021/03/16 11:11:35;;;;;;;6.32;0.73;;;8.90;64.90;;;;;;20834136;28;20033;-77
2021/03/16 11:21:36;;;;;;;5.60;0.30;;;8.90;64.90;;;;;;20799700;28;20041;-77
2021/03/16 11:31:37;;;;;;;0.10;0.10;;;8.90;64.90;;;;;;20785410;28;20122;-79
2021/03/16 11:41:56;;;;;;;0.88;0.25;;;8.90;64.90;;;;;;20799170;28;20049;-78
2021/03/16 11:52:15;;;;;;;0.35;0.20;;;8.80;64.80;;;;;;20766466;28;20044;-77
2021/03/16 12:02:34;;;;;;;3.72;0.63;;;8.90;65.00;;;;;;20798144;28;20045;-77
2021/03/16 12:12:53;;;;;;;0.15;0.10;;;8.80;64.90;;;;;;20800661;28;20046;-77
2021/03/16 12:23:12;;;;;;;0.35;0.15;;;8.80;64.90;;;;;;20758979;28;20045;-78
2021/03/16 12:33:31;;;;;;;2.10;0.40;;;8.90;64.90;;;;;;20812744;28;20037;-78
2021/03/16 12:43:50;;;;;;;1.40;0.32;;;8.80;65.50;;;;;;20783663;28;20042;-78
2021/03/16 12:54:09;;;;;;;0.35;0.20;;;8.90;65.00;;;;;;20818764;28;20040;-79
2021/03/16 13:04:28;;;;;;;0.73;0.63;;;8.80;65.60;;;;;;20847396;28;20038;-78
2021/03/16 13:14:47;;;;;;;0.10;0.10;;;8.90;65.10;;;;;;20820366;28;20116;-78
2021/03/16 13:25:07;;;;;;;0.28;0.28;;;8.90;65.20;;;;;;20776498;28;20053;-80
2021/03/16 13:35:26;;;;;;;0.10;0.10;;;8.90;65.20;;;;;;20822006;28;20049;-79
2021/03/16 13:45:45;;;;;;;0.45;0.10;;;8.90;65.20;;;;;;20815193;28;20422;-78
2021/03/16 13:56:04;;;;;;;0.13;0.13;;;8.90;65.20;;;;;;20785192;28;20053;-78
2021/03/16 14:06:23;;;;;;;0.25;0.20;;;8.90;65.10;;;;;;20787632;28;20128;-79
2021/03/16 14:16:42;;;;;;;0.10;0.10;;;8.90;65.10;;;;;;20792229;28;20406;-78
2021/03/16 14:27:01;;;;;;;0.10;0.10;;;8.90;65.10;;;;;;20765728;28;20033;-78
2021/03/16 14:37:21;;;;;;;1.17;0.68;;;8.90;65.10;;;;;;20771633;28;20045;-78
2021/03/16 14:47:40;;;;;;;0.60;0.20;;;8.90;65.10;;;;;;20809479;28;20034;-77
2021/03/16 14:57:58;;;;;;;0.60;0.32;;;8.90;65.00;;;;;;20784047;28;20515;-77
2021/03/16 15:08:17;;;;;;;0.95;0.57;;;8.90;65.00;;;;;;20835780;28;20034;-77
2021/03/16 15:18:36;;;;;;;0.17;0.10;;;8.80;64.80;;;;;;20805985;28;20463;-77
2021/03/16 15:28:55;;;;;;;1.40;0.52;;;8.90;64.80;;;;;;20808687;28;20136;-76
2021/03/16 15:39:14;;;;;;;1.92;0.10;;;8.90;64.70;;;;;;20822128;28;20053;-76
2021/03/16 15:49:33;;;;;;;0.85;0.68;;;8.90;64.40;;;;;;20776195;28;20041;-76
2021/03/16 15:59:53;;;;;;;0.10;0.10;;;9.00;64.70;;;;;;20823723;28;20045;-81
2021/03/16 16:10:12;;;;;;;2.30;0.68;;;9.30;64.90;;;;;;20804380;28;20405;-81
2021/03/16 16:20:31;;;;;;;0.32;0.22;;;9.50;65.20;;;;;;20826092;28;20041;-79
2021/03/16 16:30:51;;;;;;;0.00;0.00;;;9.60;65.30;;;;;;20812561;28;20045;-77
2021/03/16 16:41:10;;;;;;;0.20;0.10;;;9.70;65.50;;;;;;20810415;28;20037;-77
2021/03/16 16:51:28;;;;;;;0.10;0.10;;;9.70;65.80;;;;;;20824093;28;20045;-76
2021/03/16 17:01:47;;;;;;;0.25;0.15;;;9.60;66.30;;;;;;20778291;28;20413;-76
2021/03/16 17:12:07;;;;;;;0.10;0.10;;;9.60;66.70;;;;;;20809429;28;20128;-76
2021/03/16 17:22:26;;;;;;;0.20;0.20;;;9.50;66.80;;;;;;20807818;28;20077;-76
2021/03/16 17:32:45;;;;;;;0.60;0.20;;;9.40;66.80;;;;;;20805237;28;20053;-79
2021/03/16 17:43:05;;;;;;;0.17;0.17;;;9.30;66.80;;;;;;20806816;28;20045;-78
2021/03/16 17:53:24;;;;;;;0.90;0.50;;;9.30;66.80;;;;;;20818021;28;20050;-72
2021/03/16 18:03:43;;;;;;;1.98;0.25;;;9.20;66.70;;;;;;20819498;28;20460;-74
2021/03/16 18:14:02;;;;;;;0.13;0.13;;;9.20;66.60;;;;;;20840602;28;20069;-73
2021/03/16 18:24:21;;;;;;;0.50;0.35;;;9.10;66.50;;;;;;20815655;28;20041;-72
2021/03/16 18:34:41;;;;;;;0.00;0.00;;;9.00;66.30;;;;;;20826629;28;20416;-74
2021/03/16 18:45:00;;;;;;;0.00;0.00;;;9.00;66.30;;;;;;20825851;28;20049;-75
2021/03/16 18:55:20;;;;;;;0.00;0.00;;;9.00;66.20;;;;;;20831134;28;20046;-72
2021/03/16 19:05:39;;;;;;;1.30;0.38;;;9.00;66.10;;;;;;20854919;28;20033;-73
2021/03/16 19:15:58;;;;;;;0.57;0.20;;;9.00;66.10;;;;;;20843797;28;20951;-71
2021/03/16 19:26:18;;;;;;;0.20;0.10;;;9.00;66.00;;;;;;20827698;28;20045;-72
2021/03/16 19:36:37;;;;;;;0.50;0.32;;;8.90;65.90;;;;;;20814346;28;20041;-72
2021/03/16 19:46:56;;;;;;;2.60;0.30;;;9.00;65.90;;;;;;20812261;28;20053;-72
2021/03/16 19:57:15;;;;;;;0.10;0.10;;;8.90;65.90;;;;;;20811779;28;20136;-76
2021/03/16 20:07:34;;;;;;;0.63;0.60;;;8.90;65.90;;;;;;20825845;28;20528;-73
2021/03/16 20:17:53;;;;;;;1.10;0.30;;;8.90;65.90;;;;;;20822546;28;20049;-72
2021/03/16 20:28:12;;;;;;;1.55;0.32;;;8.90;65.90;;;;;;20815560;28;20046;-70
2021/03/16 20:38:31;;;;;;;0.38;0.20;;;8.90;65.90;;;;;;20816146;28;20045;-72
2021/03/16 20:48:51;;;;;;;1.70;0.20;;;8.90;65.80;;;;;;20795373;28;20049;-72
2021/03/16 20:59:10;;;;;;;1.13;0.45;;;8.90;65.80;;;;;;20814633;28;20132;-72
2021/03/16 21:09:29;;;;;;;0.50;0.30;;;8.80;65.90;;;;;;20819872;28;20049;-72
2021/03/16 21:19:49;;;;;;;0.90;0.40;;;8.90;66.00;;;;;;20786479;28;20049;-77
2021/03/16 21:30:09;;;;;;;0.68;0.30;;;8.80;65.90;;;;;;20773604;28;20046;-71
2021/03/16 21:40:30;;;;;;;2.03;0.50;;;8.90;66.00;;;;;;20806590;28;20037;-73
2021/03/16 21:50:49;;;;;;;0.20;0.20;;;8.90;66.10;;;;;;20786988;28;20045;-72
2021/03/16 22:01:08;;;;;;;0.93;0.30;;;8.80;66.00;;;;;;20810432;28;20517;-73
2021/03/16 22:11:27;;;;;;;0.10;0.10;;;8.80;66.00;;;;;;20794964;28;20041;-72
2021/03/16 22:21:46;;;;;;;0.30;0.30;;;8.80;66.00;;;;;;20814493;28;20112;-75
2021/03/16 22:32:05;;;;;;;2.13;1.08;;;8.80;66.00;;;;;;20759200;28;20132;-74
2021/03/16 22:42:25;;;;;;;0.00;0.00;;;8.80;66.10;;;;;;20831564;28;20409;-74
2021/03/16 22:52:44;;;;;;;1.88;0.38;;;8.80;66.20;;;;;;20818118;28;20041;-73
2021/03/16 23:03:03;;;;;;;0.10;0.10;;;8.80;66.20;;;;;;20818575;28;20045;-73
2021/03/16 23:13:22;;;;;;;0.68;0.43;;;8.80;66.20;;;;;;20779655;28;20042;-77
2021/03/16 23:23:41;;;;;;;0.30;0.10;;;8.80;66.20;;;;;;20783800;28;20045;-73
2021/03/16 23:34:01;;;;;;;0.30;0.30;;;8.80;66.30;;;;;;20790380;28;20041;-74
2021/03/16 23:44:20;;;;;;;1.38;0.40;;;8.80;66.30;;;;;;20792289;28;20045;-72
2021/03/16 23:54:39;;;;;;;0.05;0.05;;;8.70;66.20;;;;;;20818926;28;20072;-72
